Time;durP1;ratioP1;P1;durP2;ratioP2;P2;SDS_P1;SDS_P2;PMS_P1;PMS_P2;Temp;Humidity;BMP_temperature;BMP_pressure;BME280_temperature;BME280_humidity;BME280_pressure;Samples;Min_cycle;Max_cycle;Signal;HPM_P1;HPM_P2
2021/12/29 00:01:19;;;;;;;4.87;1.35;;;9.20;99.90;;;;;;2018957;70;21538;-75
2021/12/29 00:03:45;;;;;;;5.47;1.55;;;9.20;99.90;;;;;;2020273;70;21051;-74
2021/12/29 00:06:11;;;;;;;3.37;1.45;;;9.20;99.90;;;;;;2023706;70;21047;-75
2021/12/29 00:08:37;;;;;;;17.48;2.08;;;9.20;99.90;;;;;;2022672;70;21262;-74
2021/12/29 00:11:03;;;;;;;6.20;1.60;;;9.20;99.90;;;;;;2020027;70;21051;-75
2021/12/29 00:13:30;;;;;;;3.35;1.00;;;9.20;99.90;;;;;;2019382;70;21044;-80
2021/12/29 00:16:00;;;;;;;6.95;1.60;;;9.20;99.90;;;;;;2020371;70;21596;-77
2021/12/29 00:18:26;;;;;;;5.83;1.57;;;9.20;99.90;;;;;;2022078;70;21137;-74
2021/12/29 00:20:52;;;;;;;9.78;1.47;;;9.20;99.90;;;;;;2018358;70;21021;-75
2021/12/29 00:23:19;;;;;;;6.30;1.52;;;9.20;99.90;;;;;;2018842;71;21128;-74
2021/12/29 00:25:45;;;;;;;4.72;1.40;;;9.20;99.90;;;;;;2022888;70;21146;-74
2021/12/29 00:28:11;;;;;;;4.17;1.20;;;9.30;99.90;;;;;;2021043;70;21036;-75
2021/12/29 00:30:37;;;;;;;6.03;1.37;;;9.30;99.90;;;;;;2021869;71;21113;-74
2021/12/29 00:33:03;;;;;;;10.63;1.52;;;9.20;99.90;;;;;;2021473;70;21025;-74
2021/12/29 00:35:29;;;;;;;6.90;1.52;;;9.20;99.90;;;;;;2019798;70;21050;-74
2021/12/29 00:37:59;;;;;;;11.08;1.62;;;9.20;99.90;;;;;;2020724;70;21508;-74
2021/12/29 00:40:23;;;;;;;6.80;1.40;;;9.20;99.90;;;;;;2019575;70;21088;-75
2021/12/29 00:42:49;;;;;;;5.55;1.42;;;9.20;99.90;;;;;;2020359;70;21036;-75
2021/12/29 00:45:15;;;;;;;3.98;1.40;;;9.20;99.90;;;;;;2022679;70;21067;-74
2021/12/29 00:47:42;;;;;;;7.10;1.70;;;9.20;99.90;;;;;;2023064;71;21130;-74
2021/12/29 00:50:09;;;;;;;4.60;1.47;;;9.10;99.90;;;;;;2019253;70;21060;-74
2021/12/29 00:52:35;;;;;;;7.00;1.37;;;9.10;99.90;;;;;;2020974;70;21024;-74
2021/12/29 00:55:02;;;;;;;18.50;1.62;;;9.10;99.90;;;;;;2020210;70;21444;-73
2021/12/29 00:57:28;;;;;;;5.72;1.30;;;9.00;99.90;;;;;;2018448;70;21428;-73
2021/12/29 00:59:54;;;;;;;9.55;1.30;;;9.00;99.90;;;;;;2020420;70;21479;-74
2021/12/29 01:02:20;;;;;;;4.92;1.40;;;9.00;99.90;;;;;;2021346;70;21497;-73
2021/12/29 01:04:46;;;;;;;4.15;1.25;;;9.00;99.90;;;;;;2021565;70;21005;-73
2021/12/29 01:07:12;;;;;;;3.98;1.20;;;9.10;99.90;;;;;;2018853;70;21060;-73
2021/12/29 01:09:38;;;;;;;1.82;0.90;;;9.00;99.90;;;;;;2023200;70;21040;-72
2021/12/29 01:12:04;;;;;;;7.70;1.57;;;8.90;99.90;;;;;;2019969;70;21040;-72
2021/12/29 01:14:31;;;;;;;5.00;1.57;;;8.90;99.90;;;;;;2022346;70;21047;-73
2021/12/29 01:16:57;;;;;;;6.62;1.30;;;8.90;99.90;;;;;;2020428;70;21067;-74
2021/12/29 01:19:23;;;;;;;5.20;1.55;;;9.00;99.90;;;;;;2017912;70;21068;-73
2021/12/29 01:21:49;;;;;;;7.58;1.40;;;9.00;99.90;;;;;;2020397;70;21167;-74
2021/12/29 01:24:15;;;;;;;5.33;1.07;;;9.00;99.90;;;;;;2018618;70;21119;-73
2021/12/29 01:26:43;;;;;;;7.90;1.10;;;9.00;99.90;;;;;;2019297;70;21020;-72
2021/12/29 01:29:09;;;;;;;3.37;1.10;;;9.00;99.90;;;;;;2021549;70;21162;-73
2021/12/29 01:31:35;;;;;;;4.33;1.05;;;9.00;99.90;;;;;;2021959;70;21128;-74
2021/12/29 01:34:04;;;;;;;4.70;1.00;;;8.90;99.90;;;;;;2022248;70;21172;-73
2021/12/29 01:36:29;;;;;;;4.10;1.10;;;9.00;99.90;;;;;;2019472;70;21185;-74
2021/12/29 01:38:55;;;;;;;3.42;0.80;;;9.00;99.90;;;;;;2019958;70;21056;-73
2021/12/29 01:41:21;;;;;;;3.27;0.80;;;9.00;99.90;;;;;;2018597;70;21061;-73
2021/12/29 01:43:47;;;;;;;4.83;1.15;;;9.00;99.90;;;;;;2021183;70;21116;-72
2021/12/29 01:46:13;;;;;;;1.72;0.70;;;9.00;99.90;;;;;;2022926;71;21113;-73
2021/12/29 01:48:40;;;;;;;2.77;1.00;;;9.10;99.90;;;;;;2021831;70;21044;-76
2021/12/29 01:51:06;;;;;;;2.67;0.65;;;9.10;99.90;;;;;;2021695;70;21044;-73
2021/12/29 01:53:33;;;;;;;2.98;0.90;;;9.00;99.90;;;;;;2021949;70;21038;-75
2021/12/29 01:55:59;;;;;;;2.37;0.90;;;9.10;99.90;;;;;;2018375;70;21106;-73
2021/12/29 01:58:26;;;;;;;2.08;0.85;;;9.10;99.90;;;;;;2020399;70;21024;-75
2021/12/29 02:00:52;;;;;;;3.65;0.80;;;9.10;99.90;;;;;;2020662;70;21049;-75
2021/12/29 02:03:18;;;;;;;4.40;0.90;;;9.10;99.90;;;;;;2021280;69;21058;-75
2021/12/29 02:05:44;;;;;;;2.08;0.93;;;9.10;99.90;;;;;;2022265;71;21125;-75
2021/12/29 02:08:11;;;;;;;2.72;1.00;;;9.20;99.90;;;;;;2019885;70;21459;-75
2021/12/29 02:10:43;;;;;;;1.62;0.80;;;9.20;99.90;;;;;;2021176;70;21063;-75
2021/12/29 02:13:05;;;;;;;2.65;0.70;;;9.20;99.90;;;;;;2020070;70;21064;-73
2021/12/29 02:15:31;;;;;;;3.58;0.85;;;9.10;99.90;;;;;;2018751;70;21021;-75
2021/12/29 02:17:57;;;;;;;2.60;0.93;;;9.10;99.90;;;;;;2018256;70;21051;-75
2021/12/29 02:20:23;;;;;;;2.55;1.00;;;9.20;99.90;;;;;;2021078;70;21129;-75
2021/12/29 02:23:00;;;;;;;2.67;0.78;;;9.10;99.90;;;;;;2022540;70;21087;-75
2021/12/29 02:27:45;;;;;;;5.83;1.02;;;9.10;99.90;;;;;;2022192;70;21092;-74
2021/12/29 02:30:11;;;;;;;5.28;0.93;;;9.10;99.90;;;;;;2020210;70;21425;-74
2021/12/29 02:32:37;;;;;;;2.55;0.88;;;9.10;99.90;;;;;;2022279;70;21459;-74
2021/12/29 02:35:03;;;;;;;4.40;1.02;;;9.20;99.90;;;;;;2021730;70;21474;-74
2021/12/29 02:37:29;;;;;;;6.12;0.93;;;9.20;99.90;;;;;;2021191;70;21514;-75
2021/12/29 02:39:56;;;;;;;1.90;0.68;;;9.20;99.90;;;;;;2020661;70;21063;-73
2021/12/29 02:42:25;;;;;;;2.27;0.82;;;9.10;99.90;;;;;;2022674;70;21048;-73
2021/12/29 02:44:51;;;;;;;3.25;0.80;;;9.20;99.90;;;;;;2021382;70;21184;-74
2021/12/29 02:47:17;;;;;;;3.50;0.98;;;9.10;99.90;;;;;;2019802;70;21445;-74
2021/12/29 02:49:45;;;;;;;1.55;0.80;;;9.10;99.90;;;;;;2018182;70;21556;-73
2021/12/29 02:52:13;;;;;;;0.75;0.40;;;9.10;99.90;;;;;;2019852;70;21117;-74
2021/12/29 02:54:39;;;;;;;0.95;0.60;;;9.20;99.90;;;;;;2021513;70;21071;-74
2021/12/29 02:57:05;;;;;;;1.10;0.60;;;9.10;99.90;;;;;;2022577;71;21036;-72
2021/12/29 02:59:31;;;;;;;1.55;0.47;;;9.10;99.90;;;;;;2021849;70;21145;-73
2021/12/29 03:01:57;;;;;;;3.12;0.70;;;9.20;99.90;;;;;;2020303;70;21043;-75
2021/12/29 03:04:23;;;;;;;1.07;0.50;;;9.20;99.90;;;;;;2020269;70;21102;-75
2021/12/29 03:06:49;;;;;;;2.05;0.57;;;9.10;99.90;;;;;;2000178;71;21098;-72
2021/12/29 03:09:20;;;;;;;1.32;0.53;;;9.10;99.90;;;;;;2023589;70;21154;-72
2021/12/29 03:11:43;;;;;;;0.35;0.35;;;9.10;99.90;;;;;;2020239;70;21154;-72
2021/12/29 03:14:10;;;;;;;1.25;0.40;;;9.10;99.90;;;;;;2021220;70;21184;-72
2021/12/29 03:16:36;;;;;;;3.20;0.53;;;9.10;99.90;;;;;;2020933;70;21196;-72
2021/12/29 03:19:02;;;;;;;0.40;0.40;;;9.10;99.90;;;;;;2020835;70;21067;-72
2021/12/29 03:21:29;;;;;;;1.15;0.60;;;9.10;99.90;;;;;;2019235;71;21063;-73
2021/12/29 03:23:55;;;;;;;0.55;0.35;;;9.10;99.90;;;;;;2020572;70;21024;-73
2021/12/29 03:26:21;;;;;;;0.20;0.20;;;9.20;99.90;;;;;;2022308;70;21140;-73
2021/12/29 03:28:47;;;;;;;0.70;0.35;;;9.30;99.90;;;;;;2021666;70;21585;-72
2021/12/29 03:31:15;;;;;;;0.60;0.30;;;9.40;99.90;;;;;;2019708;70;21448;-72
2021/12/29 03:33:41;;;;;;;0.88;0.30;;;9.30;99.90;;;;;;2018500;71;21043;-73
2021/12/29 03:36:07;;;;;;;1.15;0.30;;;9.40;99.90;;;;;;2018357;70;21145;-72
2021/12/29 03:38:33;;;;;;;0.45;0.37;;;9.40;99.90;;;;;;2018772;70;21025;-73
2021/12/29 03:40:59;;;;;;;1.62;0.30;;;9.50;99.90;;;;;;2019918;71;21168;-73
2021/12/29 03:43:25;;;;;;;0.85;0.35;;;9.40;99.90;;;;;;2019741;70;21475;-73
2021/12/29 03:45:51;;;;;;;0.23;0.10;;;9.40;99.90;;;;;;2022421;70;21459;-73
2021/12/29 03:48:18;;;;;;;0.55;0.30;;;9.50;99.90;;;;;;2022336;71;21047;-73
2021/12/29 03:50:46;;;;;;;0.35;0.33;;;9.40;99.90;;;;;;2019982;70;21108;-74
2021/12/29 03:53:13;;;;;;;1.17;0.50;;;9.30;99.90;;;;;;2018822;71;21133;-73
2021/12/29 03:55:39;;;;;;;2.22;0.50;;;9.30;99.90;;;;;;2021106;70;21624;-74
2021/12/29 03:58:05;;;;;;;0.40;0.30;;;9.30;99.90;;;;;;2018498;70;21417;-73
2021/12/29 04:00:32;;;;;;;1.40;0.60;;;9.30;99.90;;;;;;2018311;70;21556;-73
2021/12/29 04:02:58;;;;;;;2.10;0.37;;;9.30;99.90;;;;;;2020331;70;21129;-74
2021/12/29 04:05:24;;;;;;;1.87;0.50;;;9.30;99.90;;;;;;2019968;70;21129;-73
2021/12/29 04:07:50;;;;;;;1.57;0.40;;;9.20;99.90;;;;;;2022642;70;21140;-73
2021/12/29 04:10:16;;;;;;;1.37;0.50;;;9.30;99.90;;;;;;2022854;71;21008;-73
2021/12/29 04:12:42;;;;;;;1.22;0.60;;;9.30;99.90;;;;;;2021860;70;21121;-73
2021/12/29 04:15:08;;;;;;;26.33;0.70;;;9.20;99.90;;;;;;2022370;70;21048;-73
2021/12/29 04:17:37;;;;;;;1.37;0.60;;;9.20;99.90;;;;;;2021631;70;21056;-73
2021/12/29 04:22:47;;;;;;;0.70;0.30;;;9.10;99.90;;;;;;2021222;70;21043;-73
2021/12/29 04:25:14;;;;;;;1.12;0.47;;;9.20;99.90;;;;;;2022069;70;21047;-73
2021/12/29 04:27:40;;;;;;;1.40;0.50;;;9.10;99.90;;;;;;2018397;70;21116;-73
2021/12/29 04:30:06;;;;;;;0.78;0.33;;;9.10;99.90;;;;;;2019287;70;21117;-73
2021/12/29 04:32:32;;;;;;;3.22;0.60;;;9.00;99.90;;;;;;2019612;70;21051;-73
2021/12/29 04:34:58;;;;;;;4.53;0.72;;;8.90;99.90;;;;;;2019424;70;21120;-73
2021/12/29 04:37:24;;;;;;;3.05;0.60;;;8.70;99.90;;;;;;2022838;70;21039;-75
2021/12/29 04:39:50;;;;;;;1.05;0.30;;;8.60;99.90;;;;;;2012934;70;21141;-75
2021/12/29 04:42:17;;;;;;;1.47;0.45;;;8.60;99.90;;;;;;2019336;70;21024;-74
2021/12/29 04:44:43;;;;;;;4.80;0.60;;;8.60;99.90;;;;;;2020106;70;21098;-74
2021/12/29 04:47:11;;;;;;;5.50;0.57;;;8.50;99.90;;;;;;2020896;70;21164;-74
2021/12/29 04:49:41;;;;;;;8.00;0.42;;;8.40;99.90;;;;;;2020438;70;21554;-74
2021/12/29 04:52:05;;;;;;;0.78;0.47;;;8.50;99.90;;;;;;2019346;70;21077;-74
2021/12/29 04:54:31;;;;;;;1.37;0.45;;;8.50;99.90;;;;;;2020928;70;21136;-74
2021/12/29 04:56:57;;;;;;;2.00;0.80;;;8.50;99.90;;;;;;2020480;70;21055;-74
2021/12/29 04:59:23;;;;;;;1.00;0.60;;;8.40;99.90;;;;;;2017260;70;21024;-74
2021/12/29 05:01:49;;;;;;;3.80;0.60;;;8.40;99.90;;;;;;2022491;70;21471;-74
2021/12/29 05:04:29;;;;;;;1.22;0.50;;;8.50;99.90;;;;;;2020837;70;21471;-73
2021/12/29 05:09:33;;;;;;;4.15;0.50;;;8.50;99.90;;;;;;2019062;71;21449;-75
2021/12/29 05:12:01;;;;;;;0.75;0.53;;;8.40;99.90;;;;;;2019871;70;21547;-74
2021/12/29 05:14:27;;;;;;;1.85;0.62;;;8.40;99.90;;;;;;2020613;70;21162;-74
2021/12/29 05:16:53;;;;;;;3.45;0.85;;;8.30;99.90;;;;;;2020985;70;21055;-74
2021/12/29 05:19:19;;;;;;;3.50;0.60;;;8.30;99.90;;;;;;2020110;70;21059;-74
2021/12/29 05:21:45;;;;;;;0.95;0.65;;;8.30;99.90;;;;;;2019254;70;21475;-74
2021/12/29 05:24:11;;;;;;;3.52;0.70;;;8.20;99.90;;;;;;2022197;70;21521;-75
2021/12/29 05:26:38;;;;;;;0.95;0.50;;;8.10;99.90;;;;;;2019787;70;21455;-74
2021/12/29 05:29:04;;;;;;;6.17;0.80;;;8.10;99.90;;;;;;2022649;70;21059;-74
2021/12/29 05:31:31;;;;;;;3.33;0.75;;;8.30;99.90;;;;;;2018759;70;21124;-74
2021/12/29 05:33:57;;;;;;;1.47;0.45;;;8.30;99.90;;;;;;2018693;70;21052;-74
2021/12/29 05:36:23;;;;;;;2.75;0.60;;;8.20;99.90;;;;;;2021333;70;21059;-74
2021/12/29 05:38:49;;;;;;;2.85;0.72;;;8.20;99.90;;;;;;2013504;70;21064;-74
2021/12/29 05:41:15;;;;;;;1.85;0.60;;;8.20;99.90;;;;;;2020692;70;21059;-74
2021/12/29 05:43:41;;;;;;;1.17;0.50;;;8.30;99.90;;;;;;2020819;70;21017;-74
2021/12/29 05:46:09;;;;;;;1.65;0.50;;;8.30;99.90;;;;;;2021400;70;21482;-74
2021/12/29 05:48:35;;;;;;;1.60;0.40;;;8.40;99.90;;;;;;2022529;70;21063;-73
2021/12/29 05:51:01;;;;;;;1.62;0.53;;;8.20;99.90;;;;;;2022881;70;21129;-74
2021/12/29 05:53:27;;;;;;;1.70;0.60;;;8.30;99.90;;;;;;2019657;71;21052;-74
2021/12/29 05:55:54;;;;;;;3.20;0.80;;;8.20;99.90;;;;;;2019745;70;21136;-74
2021/12/29 05:58:20;;;;;;;0.95;0.40;;;8.20;99.90;;;;;;2018428;71;21477;-74
2021/12/29 06:00:46;;;;;;;2.67;0.70;;;8.10;99.90;;;;;;2021626;70;21503;-75
2021/12/29 06:03:12;;;;;;;4.53;0.60;;;8.10;99.90;;;;;;2020344;70;21557;-75
2021/12/29 06:05:38;;;;;;;3.90;0.85;;;8.20;99.90;;;;;;2021582;70;21197;-74
2021/12/29 06:08:04;;;;;;;1.60;0.60;;;8.20;99.90;;;;;;2021158;69;21129;-75
2021/12/29 06:10:30;;;;;;;2.37;0.68;;;8.30;99.90;;;;;;2021395;70;21017;-74
2021/12/29 06:12:56;;;;;;;13.08;0.90;;;8.30;99.90;;;;;;2021267;70;21051;-74
2021/12/29 06:15:23;;;;;;;2.75;0.72;;;8.30;99.90;;;;;;2019110;70;21051;-73
2021/12/29 06:17:49;;;;;;;3.33;1.02;;;8.40;99.90;;;;;;2018291;70;21124;-74
2021/12/29 06:20:15;;;;;;;3.10;0.93;;;8.40;99.90;;;;;;2020299;70;21132;-74
2021/12/29 06:22:41;;;;;;;3.17;0.75;;;8.30;99.90;;;;;;2018236;70;21124;-74
2021/12/29 06:25:07;;;;;;;1.60;0.70;;;8.30;99.90;;;;;;2019707;70;21025;-74
2021/12/29 06:27:33;;;;;;;1.47;0.55;;;8.30;99.90;;;;;;2021350;70;21118;-74
2021/12/29 06:29:59;;;;;;;2.90;0.82;;;8.30;99.90;;;;;;2022061;70;21055;-76
2021/12/29 06:32:26;;;;;;;4.95;0.88;;;8.20;99.90;;;;;;2021156;70;21530;-76
2021/12/29 06:34:52;;;;;;;1.92;0.60;;;8.30;99.90;;;;;;2022109;71;21047;-77
2021/12/29 06:37:18;;;;;;;2.05;0.75;;;8.30;99.90;;;;;;2021180;70;21547;-76
2021/12/29 06:39:44;;;;;;;2.77;1.10;;;8.20;99.90;;;;;;2018462;70;21574;-76
2021/12/29 06:42:10;;;;;;;2.10;0.78;;;8.20;99.90;;;;;;2021689;70;21481;-76
2021/12/29 06:44:37;;;;;;;3.80;0.90;;;8.30;99.90;;;;;;2014050;70;21055;-76
2021/12/29 06:47:03;;;;;;;0.62;0.42;;;8.20;99.90;;;;;;2023036;70;21078;-76
2021/12/29 06:49:29;;;;;;;6.17;0.85;;;8.20;99.90;;;;;;2020309;71;21035;-75
2021/12/29 06:51:55;;;;;;;2.87;0.88;;;8.30;99.90;;;;;;2020619;70;21126;-76
2021/12/29 06:54:21;;;;;;;3.17;1.07;;;8.10;99.90;;;;;;2020657;70;21136;-76
2021/12/29 06:56:47;;;;;;;4.85;1.17;;;8.00;99.90;;;;;;2021274;70;21051;-76
2021/12/29 06:59:13;;;;;;;4.08;1.12;;;8.00;99.90;;;;;;2022672;70;21129;-75
2021/12/29 07:01:39;;;;;;;4.45;1.22;;;7.90;99.90;;;;;;2021556;70;21053;-76
2021/12/29 07:04:05;;;;;;;3.52;1.20;;;8.00;99.90;;;;;;2019479;70;21125;-76
2021/12/29 07:06:32;;;;;;;3.02;1.20;;;8.00;99.90;;;;;;2020731;70;21116;-76
2021/12/29 07:08:58;;;;;;;5.75;1.20;;;8.00;99.90;;;;;;2022486;71;21118;-75
2021/12/29 07:11:24;;;;;;;1.07;0.90;;;8.00;99.90;;;;;;2022519;70;21154;-77
2021/12/29 07:13:51;;;;;;;1.85;0.78;;;8.00;99.90;;;;;;2020478;70;21098;-75
2021/12/29 07:16:17;;;;;;;6.47;1.17;;;8.00;99.90;;;;;;2022794;71;21198;-75
2021/12/29 07:18:44;;;;;;;4.05;0.90;;;8.00;99.90;;;;;;2019246;70;21024;-75
2021/12/29 07:21:10;;;;;;;6.45;1.67;;;8.00;99.90;;;;;;2021089;70;21468;-76
2021/12/29 07:23:36;;;;;;;6.08;1.40;;;8.00;99.90;;;;;;2021937;70;21507;-75
2021/12/29 07:26:02;;;;;;;5.85;1.80;;;8.10;99.90;;;;;;2015535;70;21487;-76
2021/12/29 07:28:28;;;;;;;3.40;1.25;;;8.00;99.90;;;;;;2019606;70;21472;-75
2021/12/29 07:30:54;;;;;;;6.12;1.70;;;8.10;99.90;;;;;;2022958;70;21040;-76
2021/12/29 07:33:20;;;;;;;7.05;1.35;;;8.20;99.90;;;;;;2019797;70;21178;-75
2021/12/29 07:35:46;;;;;;;9.53;1.30;;;8.10;99.90;;;;;;2018263;70;21036;-75
2021/12/29 07:38:12;;;;;;;4.75;1.60;;;8.20;99.90;;;;;;2021471;70;21060;-77
2021/12/29 07:40:39;;;;;;;6.53;1.22;;;8.20;99.90;;;;;;2021957;70;21120;-80
2021/12/29 07:43:05;;;;;;;3.20;1.10;;;8.30;99.90;;;;;;2021256;70;21043;-78
2021/12/29 07:45:31;;;;;;;5.00;1.00;;;8.30;99.90;;;;;;2019146;69;21118;-76
2021/12/29 07:47:57;;;;;;;4.35;1.07;;;8.30;99.90;;;;;;2020920;70;21552;-76
2021/12/29 07:50:24;;;;;;;7.47;1.30;;;8.30;99.90;;;;;;2022744;70;21132;-75
2021/12/29 07:52:50;;;;;;;1.82;0.80;;;8.30;99.90;;;;;;2021910;71;21102;-77
2021/12/29 07:55:16;;;;;;;3.83;1.05;;;8.20;99.90;;;;;;2020406;70;21020;-75
2021/12/29 07:57:42;;;;;;;5.72;1.70;;;8.20;99.90;;;;;;2020765;70;21051;-76
2021/12/29 08:00:08;;;;;;;1.82;1.10;;;8.20;99.90;;;;;;2021321;69;21064;-75
2021/12/29 08:02:34;;;;;;;2.77;1.07;;;8.20;99.90;;;;;;2022146;70;21128;-74
2021/12/29 08:05:00;;;;;;;2.98;1.22;;;8.30;99.90;;;;;;2019593;70;21094;-74
2021/12/29 08:07:26;;;;;;;4.58;1.60;;;8.30;99.90;;;;;;2019191;70;21102;-74
2021/12/29 08:09:53;;;;;;;1.82;0.88;;;8.40;99.90;;;;;;2019776;70;21140;-73
2021/12/29 08:12:19;;;;;;;3.37;1.42;;;8.40;99.90;;;;;;2014379;71;21471;-73
2021/12/29 08:14:47;;;;;;;1.57;0.95;;;8.40;99.90;;;;;;2018646;70;21090;-73
2021/12/29 08:17:13;;;;;;;2.87;1.00;;;8.40;99.90;;;;;;2020245;70;21511;-74
2021/12/29 08:19:39;;;;;;;2.30;1.10;;;8.30;99.90;;;;;;2019640;71;21121;-74
2021/12/29 08:22:05;;;;;;;3.17;1.00;;;8.30;99.90;;;;;;2022179;70;21128;-74
2021/12/29 08:24:31;;;;;;;3.65;1.17;;;8.20;99.90;;;;;;2020232;70;21024;-75
2021/12/29 08:26:57;;;;;;;4.10;1.07;;;8.30;99.90;;;;;;2020692;70;21052;-75
2021/12/29 08:29:23;;;;;;;1.87;1.30;;;8.30;99.90;;;;;;2019754;70;21016;-75
2021/12/29 08:31:49;;;;;;;4.90;1.30;;;8.30;99.90;;;;;;2021587;70;21064;-77
2021/12/29 08:34:16;;;;;;;3.30;1.10;;;8.30;99.90;;;;;;2019926;70;21055;-75
2021/12/29 08:36:42;;;;;;;2.35;1.27;;;8.40;99.90;;;;;;2021767;70;21062;-79
2021/12/29 08:39:08;;;;;;;5.15;1.45;;;8.50;99.90;;;;;;2019290;70;21196;-78
2021/12/29 08:41:34;;;;;;;11.22;1.90;;;8.70;99.90;;;;;;2021683;70;21392;-78
2021/12/29 08:44:00;;;;;;;5.10;1.60;;;8.80;99.90;;;;;;2018474;70;21096;-79
2021/12/29 08:46:28;;;;;;;2.83;1.90;;;8.90;99.90;;;;;;2019571;70;21042;-79
2021/12/29 08:48:54;;;;;;;3.37;1.55;;;8.90;99.90;;;;;;2021214;70;21142;-77
2021/12/29 08:51:20;;;;;;;2.45;1.32;;;8.90;99.90;;;;;;2021013;70;21099;-79
2021/12/29 08:53:46;;;;;;;2.27;1.35;;;8.90;99.90;;;;;;2020997;70;21142;-76
2021/12/29 08:56:14;;;;;;;3.27;1.12;;;9.00;99.90;;;;;;2014325;70;21226;-74
2021/12/29 08:58:40;;;;;;;7.42;1.37;;;9.00;99.90;;;;;;2018983;70;21602;-76
2021/12/29 09:01:06;;;;;;;3.08;1.12;;;9.10;99.90;;;;;;2019411;70;21436;-76
2021/12/29 09:03:32;;;;;;;1.42;1.00;;;9.10;99.90;;;;;;2018979;70;21129;-76
2021/12/29 09:05:58;;;;;;;4.25;1.92;;;9.20;99.90;;;;;;2020126;70;21125;-76
2021/12/29 09:08:25;;;;;;;3.12;1.20;;;9.20;99.90;;;;;;2020815;71;21128;-77
2021/12/29 09:10:52;;;;;;;1.55;1.10;;;9.30;99.90;;;;;;2020225;70;21136;-77
2021/12/29 09:13:19;;;;;;;3.08;1.82;;;9.50;99.90;;;;;;2020708;70;21467;-78
2021/12/29 09:15:45;;;;;;;5.12;1.30;;;9.50;99.90;;;;;;2020805;70;21020;-78
2021/12/29 09:18:11;;;;;;;7.03;1.42;;;9.60;99.90;;;;;;2019341;71;21043;-78
2021/12/29 09:20:44;;;;;;;5.87;1.55;;;9.50;99.90;;;;;;2022414;70;21051;-78
2021/12/29 09:23:05;;;;;;;5.62;1.40;;;9.60;99.90;;;;;;2021558;70;21508;-79
2021/12/29 09:25:31;;;;;;;3.50;1.35;;;9.60;99.90;;;;;;2021377;71;21014;-78
2021/12/29 09:27:57;;;;;;;6.87;1.35;;;9.60;99.90;;;;;;2018665;70;21038;-77
2021/12/29 09:30:23;;;;;;;2.77;1.17;;;9.60;99.90;;;;;;2019719;70;21113;-78
2021/12/29 09:32:50;;;;;;;6.47;1.30;;;9.70;99.90;;;;;;2020054;70;21082;-78
2021/12/29 09:35:16;;;;;;;5.00;1.25;;;9.80;99.90;;;;;;2019164;70;21131;-78
2021/12/29 09:37:42;;;;;;;4.03;1.30;;;9.70;99.90;;;;;;2020482;70;21052;-78
2021/12/29 09:40:08;;;;;;;3.22;1.60;;;9.80;99.90;;;;;;2015895;70;21468;-78
2021/12/29 09:42:34;;;;;;;2.87;1.10;;;9.90;99.90;;;;;;2020021;70;21127;-77
2021/12/29 09:45:00;;;;;;;7.03;1.70;;;9.90;99.90;;;;;;2013405;70;21103;-81
2021/12/29 09:47:28;;;;;;;4.85;1.42;;;10.00;99.90;;;;;;2020768;70;21043;-83
2021/12/29 09:49:54;;;;;;;4.28;1.62;;;10.00;99.90;;;;;;2020408;70;21469;-81
2021/12/29 09:52:20;;;;;;;7.70;1.60;;;10.00;99.90;;;;;;2004609;70;21575;-78
2021/12/29 09:54:46;;;;;;;4.53;1.22;;;10.00;99.90;;;;;;2020523;70;21457;-77
2021/12/29 09:57:14;;;;;;;4.53;1.25;;;10.00;99.90;;;;;;2020554;70;21475;-81
2021/12/29 09:59:40;;;;;;;2.65;1.27;;;10.00;99.90;;;;;;2018659;70;21051;-78
2021/12/29 10:02:06;;;;;;;3.80;1.35;;;10.00;99.90;;;;;;2018124;70;21135;-78
2021/12/29 10:04:37;;;;;;;3.90;1.25;;;10.10;99.90;;;;;;2021583;70;21109;-80
2021/12/29 10:07:03;;;;;;;;;;;10.20;99.90;;;;;;2024913;70;21054;-81
2021/12/29 10:09:29;;;;;;;4.08;1.40;;;10.20;99.90;;;;;;2022186;71;20101;-81
2021/12/29 10:11:56;;;;;;;3.67;1.15;;;10.40;99.90;;;;;;2021711;71;21048;-76
2021/12/29 10:14:22;;;;;;;2.35;1.12;;;10.50;99.90;;;;;;2021218;70;21145;-81
2021/12/29 10:16:48;;;;;;;4.95;1.05;;;10.50;99.90;;;;;;2020429;70;21121;-82
2021/12/29 10:19:14;;;;;;;2.83;1.12;;;10.20;99.90;;;;;;2019248;70;21052;-82
2021/12/29 10:21:40;;;;;;;2.70;1.20;;;10.20;99.90;;;;;;2019412;70;21076;-82
2021/12/29 10:24:06;;;;;;;2.58;1.00;;;10.10;99.90;;;;;;2021140;70;21048;-81
2021/12/29 10:26:33;;;;;;;3.50;1.22;;;10.10;99.90;;;;;;2020726;70;21046;-81
2021/12/29 10:29:01;;;;;;;7.55;1.50;;;10.20;99.90;;;;;;2022747;70;21051;-81
2021/12/29 10:31:27;;;;;;;3.12;0.88;;;10.40;99.90;;;;;;2021673;70;21081;-82
2021/12/29 10:33:53;;;;;;;2.62;0.93;;;10.40;99.90;;;;;;2021202;71;21013;-83
2021/12/29 10:36:19;;;;;;;3.87;1.27;;;10.40;99.90;;;;;;2020526;70;21056;-80
2021/12/29 10:38:45;;;;;;;3.87;1.35;;;10.30;99.90;;;;;;2020383;70;21129;-80
2021/12/29 10:41:11;;;;;;;6.22;1.47;;;10.40;99.90;;;;;;2022129;70;21102;-74
2021/12/29 10:43:37;;;;;;;2.62;1.00;;;10.30;99.90;;;;;;2021824;70;21056;-81
2021/12/29 10:46:05;;;;;;;4.20;1.22;;;10.40;99.90;;;;;;2022715;70;21044;-80
2021/12/29 10:48:31;;;;;;;5.17;1.32;;;10.50;99.90;;;;;;2017544;70;21490;-81
2021/12/29 10:50:57;;;;;;;3.27;1.25;;;10.60;99.90;;;;;;2018911;70;21456;-82
2021/12/29 10:53:23;;;;;;;3.52;1.05;;;10.60;99.90;;;;;;2019073;70;21471;-81
2021/12/29 10:55:50;;;;;;;3.55;1.30;;;10.80;99.90;;;;;;2021525;70;21588;-81
2021/12/29 10:58:16;;;;;;;2.33;1.32;;;10.90;99.90;;;;;;2021540;70;21129;-81
2021/12/29 11:00:42;;;;;;;4.28;1.35;;;10.90;99.90;;;;;;2021324;70;21032;-82
2021/12/29 11:03:08;;;;;;;6.58;1.42;;;11.00;99.90;;;;;;2020072;71;21109;-82
2021/12/29 11:05:34;;;;;;;2.47;0.93;;;11.00;99.90;;;;;;2020791;70;21044;-81
2021/12/29 11:08:00;;;;;;;4.50;0.90;;;10.90;99.90;;;;;;2023297;70;21065;-81
2021/12/29 11:10:26;;;;;;;4.70;1.15;;;10.80;99.90;;;;;;2020495;70;21020;-83
2021/12/29 11:12:55;;;;;;;4.55;1.12;;;10.70;99.90;;;;;;2020639;70;21039;-80
2021/12/29 11:15:21;;;;;;;3.22;0.90;;;10.70;99.90;;;;;;2019392;70;21563;-81
2021/12/29 11:17:47;;;;;;;3.60;0.95;;;10.70;99.90;;;;;;2018697;70;21527;-81
2021/12/29 11:20:14;;;;;;;2.70;1.17;;;10.80;99.90;;;;;;2021833;71;21009;-81
2021/12/29 11:22:41;;;;;;;6.67;0.90;;;10.80;99.90;;;;;;2021408;70;21050;-81
2021/12/29 11:25:08;;;;;;;2.25;0.80;;;10.70;99.90;;;;;;2023124;70;21051;-81
2021/12/29 11:27:35;;;;;;;4.80;1.17;;;10.70;99.90;;;;;;2018825;70;21050;-83
2021/12/29 11:30:03;;;;;;;3.12;0.88;;;10.60;99.90;;;;;;2020697;70;21153;-81
2021/12/29 11:32:29;;;;;;;3.40;0.98;;;10.60;99.90;;;;;;2023290;70;21051;-81
2021/12/29 11:34:55;;;;;;;2.87;1.20;;;10.70;99.90;;;;;;2019045;70;21041;-81
2021/12/29 11:37:21;;;;;;;0.72;0.72;;;10.60;99.90;;;;;;2021821;70;21020;-81
2021/12/29 11:39:47;;;;;;;1.57;0.90;;;10.70;99.90;;;;;;2020673;70;21063;-81
2021/12/29 11:42:13;;;;;;;4.85;0.95;;;10.70;99.90;;;;;;2022591;71;21044;-81
2021/12/29 11:44:39;;;;;;;1.80;0.90;;;10.80;99.90;;;;;;2019367;70;21133;-81
2021/12/29 11:47:06;;;;;;;1.95;0.80;;;10.70;99.90;;;;;;2021017;71;21101;-81
2021/12/29 11:49:32;;;;;;;2.37;0.75;;;10.60;99.90;;;;;;2020202;70;21050;-80
2021/12/29 11:51:58;;;;;;;1.75;0.72;;;10.60;99.90;;;;;;2022319;70;21051;-80
2021/12/29 11:54:24;;;;;;;3.27;1.00;;;10.60;99.90;;;;;;2023936;70;21044;-80
2021/12/29 11:56:50;;;;;;;6.85;1.32;;;10.60;99.90;;;;;;2018433;70;21177;-80
2021/12/29 11:59:16;;;;;;;2.33;1.00;;;10.50;99.90;;;;;;2021850;70;21452;-80
2021/12/29 12:01:42;;;;;;;1.85;0.90;;;10.60;99.90;;;;;;2019357;71;21440;-83
2021/12/29 12:04:09;;;;;;;6.17;0.85;;;10.60;99.90;;;;;;2018353;70;21467;-84
2021/12/29 12:06:35;;;;;;;4.53;1.00;;;10.60;99.90;;;;;;2017388;70;21129;-83
2021/12/29 12:09:02;;;;;;;3.40;1.25;;;10.50;99.90;;;;;;2020248;70;21063;-83
2021/12/29 12:11:28;;;;;;;3.35;1.72;;;10.70;99.90;;;;;;2022889;71;21039;-83
2021/12/29 12:13:56;;;;;;;5.17;1.50;;;10.80;99.90;;;;;;2023170;70;21068;-82
2021/12/29 12:16:26;;;;;;;5.55;1.32;;;10.80;99.90;;;;;;2020118;70;21115;-83
2021/12/29 12:18:51;;;;;;;5.50;1.50;;;10.90;99.90;;;;;;2023133;70;21258;-82
2021/12/29 12:21:17;;;;;;;6.33;1.22;;;10.90;99.90;;;;;;2022978;70;21056;-82
2021/12/29 12:23:43;;;;;;;6.25;1.30;;;10.80;99.90;;;;;;2023094;70;21153;-84
2021/12/29 12:26:09;;;;;;;4.45;1.50;;;11.00;99.90;;;;;;2022032;69;21131;-81
2021/12/29 12:28:35;;;;;;;2.75;1.30;;;11.00;99.90;;;;;;2022920;70;21132;-82
2021/12/29 12:31:01;;;;;;;6.97;1.70;;;11.10;99.90;;;;;;2013442;70;21051;-82
2021/12/29 12:33:27;;;;;;;8.40;1.95;;;11.10;99.90;;;;;;2018143;70;21059;-83
2021/12/29 12:35:54;;;;;;;4.80;1.22;;;11.00;99.90;;;;;;2021560;70;21051;-82
2021/12/29 12:38:21;;;;;;;4.87;1.30;;;11.00;99.90;;;;;;2014499;70;21503;-83
2021/12/29 12:40:47;;;;;;;4.72;1.32;;;10.90;99.90;;;;;;2021196;70;21036;-81
2021/12/29 12:43:14;;;;;;;14.70;1.50;;;10.90;99.90;;;;;;2021908;70;21051;-78
2021/12/29 12:45:40;;;;;;;10.70;1.52;;;11.00;99.90;;;;;;2021267;70;21468;-82
2021/12/29 12:48:07;;;;;;;7.22;2.10;;;10.90;99.90;;;;;;2021235;70;21480;-82
2021/12/29 12:50:34;;;;;;;6.70;1.35;;;11.00;99.90;;;;;;2018474;70;21157;-82
2021/12/29 12:53:00;;;;;;;5.45;1.82;;;11.00;99.90;;;;;;2022868;70;21055;-81
2021/12/29 12:55:26;;;;;;;4.78;1.70;;;11.00;99.90;;;;;;2022302;70;21132;-82
2021/12/29 12:57:52;;;;;;;4.83;1.72;;;10.90;99.90;;;;;;2022840;70;21065;-81